createdAt,value
2018-07-15T00:01:08.451Z,46.38
2018-07-15T00:03:37.320Z,46.38
2018-07-15T00:06:06.092Z,46.74
2018-07-15T00:08:34.852Z,47.05
2018-07-15T00:11:03.499Z,46.62
2018-07-15T00:13:32.186Z,46.78
2018-07-15T00:16:00.833Z,47.64
2018-07-15T00:18:29.406Z,46.35
2018-07-15T00:20:58.032Z,46.22
2018-07-15T00:23:26.755Z,46.86
2018-07-15T00:25:55.492Z,46.59
2018-07-15T00:28:24.167Z,46.25
2018-07-15T00:30:53.062Z,46.67
2018-07-15T00:33:22.079Z,47.31
2018-07-15T00:35:50.676Z,47.35
2018-07-15T00:38:19.252Z,47.72
2018-07-15T00:40:47.791Z,47.68
2018-07-15T00:43:16.353Z,47.35
2018-07-15T00:45:44.889Z,47.36
2018-07-15T00:48:13.474Z,47.41
2018-07-15T00:50:42.032Z,48.04
2018-07-15T00:53:10.639Z,47.32
2018-07-15T00:55:39.456Z,47.65
2018-07-15T00:58:08.180Z,47.51
2018-07-15T01:00:41.974Z,47.91
2018-07-15T01:03:10.678Z,48.64
2018-07-15T01:05:39.466Z,48.36
2018-07-15T01:08:08.485Z,48.12
2018-07-15T01:10:37.244Z,48.76
2018-07-15T01:13:06.224Z,48.74
2018-07-15T01:15:34.849Z,48.85
2018-07-15T01:18:03.771Z,49.92
2018-07-15T01:20:32.635Z,49.08
2018-07-15T01:23:01.260Z,48.96
2018-07-15T01:25:30.016Z,49.87
2018-07-15T01:27:58.629Z,49.48
2018-07-15T01:30:27.407Z,49.99
2018-07-15T01:32:56.024Z,49.66
2018-07-15T01:35:24.671Z,49.30
2018-07-15T01:37:53.467Z,50.22
2018-07-15T01:40:22.045Z,50.39
2018-07-15T01:42:50.676Z,50.45
2018-07-15T01:45:19.452Z,50.76
2018-07-15T01:47:48.372Z,50.56
2018-07-15T01:50:17.416Z,50.31
2018-07-15T01:52:46.441Z,50.64
2018-07-15T01:55:15.348Z,50.76
2018-07-15T01:57:44.153Z,50.46
2018-07-15T02:00:13.123Z,51.29
2018-07-15T02:02:42.046Z,51.56
2018-07-15T02:05:11.215Z,50.60
2018-07-15T02:07:40.075Z,51.82
2018-07-15T02:10:08.941Z,51.18
2018-07-15T02:12:37.747Z,51.77
2018-07-15T02:15:06.580Z,51.75
2018-07-15T02:17:35.529Z,51.87
2018-07-15T02:20:04.475Z,51.72
2018-07-15T02:22:33.505Z,51.83
2018-07-15T02:25:02.422Z,52.02
2018-07-15T02:27:31.592Z,51.98
2018-07-15T02:30:00.402Z,52.41
2018-07-15T02:32:29.331Z,51.77
2018-07-15T02:34:58.132Z,51.89
2018-07-15T02:37:27.009Z,52.03
2018-07-15T02:39:55.841Z,51.89
2018-07-15T02:42:24.823Z,52.42
2018-07-15T02:44:53.754Z,52.21
2018-07-15T02:47:22.558Z,52.86
2018-07-15T02:49:51.620Z,52.26
2018-07-15T02:52:20.594Z,52.59
2018-07-15T02:54:49.423Z,52.20
2018-07-15T02:57:18.439Z,52.85
2018-07-15T02:59:47.297Z,53.22
2018-07-15T03:02:16.319Z,53.17
2018-07-15T03:04:45.180Z,53.61
2018-07-15T03:07:14.038Z,52.69
2018-07-15T03:09:42.867Z,52.67
2018-07-15T03:12:11.895Z,53.03
2018-07-15T03:14:40.587Z,52.91
2018-07-15T03:17:09.463Z,52.92
2018-07-15T03:19:38.082Z,53.08
2018-07-15T03:22:06.751Z,53.36
2018-07-15T03:24:35.536Z,53.75
2018-07-15T03:27:04.150Z,53.30
2018-07-15T03:29:32.780Z,53.40
2018-07-15T03:32:01.510Z,53.78
2018-07-15T03:34:30.192Z,54.24
2018-07-15T03:36:58.834Z,54.03
2018-07-15T03:39:27.444Z,53.92
2018-07-15T03:41:56.063Z,54.10
2018-07-15T03:44:24.800Z,54.63
2018-07-15T03:46:53.535Z,54.78
2018-07-15T03:49:22.283Z,54.91
2018-07-15T03:51:51.018Z,54.05
2018-07-15T03:54:19.706Z,53.92
2018-07-15T03:56:48.366Z,53.97
2018-07-15T03:59:17.274Z,54.49
2018-07-15T04:01:46.396Z,54.09
2018-07-15T04:04:15.439Z,54.40
2018-07-15T04:06:44.553Z,54.21
2018-07-15T04:09:13.399Z,53.96
2018-07-15T04:11:42.380Z,53.68
2018-07-15T04:14:11.474Z,54.56
2018-07-15T04:16:40.453Z,54.09
2018-07-15T04:19:10.261Z,53.99
2018-07-15T04:21:39.539Z,54.82
2018-07-15T04:24:08.879Z,53.69
2018-07-15T04:26:37.722Z,53.81
2018-07-15T04:29:06.529Z,53.75
2018-07-15T04:31:35.347Z,53.71
2018-07-15T04:34:04.285Z,53.32
2018-07-15T04:36:32.989Z,53.41
2018-07-15T04:39:01.756Z,53.60
2018-07-15T04:41:30.635Z,54.05
2018-07-15T04:43:59.555Z,54.64
2018-07-15T04:46:28.999Z,54.80
2018-07-15T04:48:57.681Z,54.63
2018-07-15T04:51:26.334Z,53.95
2018-07-15T04:53:55.112Z,54.17
2018-07-15T04:56:23.912Z,54.20
2018-07-15T04:58:52.637Z,53.89
2018-07-15T05:01:21.312Z,52.99
2018-07-15T05:03:50.149Z,53.63
2018-07-15T05:06:19.280Z,53.00
2018-07-15T05:08:48.230Z,53.75
2018-07-15T05:11:16.944Z,53.81
2018-07-15T05:13:45.895Z,52.65
2018-07-15T05:16:14.630Z,52.55
2018-07-15T05:18:43.506Z,53.01
2018-07-15T05:21:12.312Z,53.24
2018-07-15T05:23:41.098Z,54.13
2018-07-15T05:26:10.096Z,53.62
2018-07-15T05:28:38.960Z,53.58
2018-07-15T05:31:07.912Z,52.66
2018-07-15T05:33:36.873Z,52.93
2018-07-15T05:36:05.695Z,52.40
2018-07-15T05:38:34.652Z,52.59
2018-07-15T05:41:03.807Z,51.58
2018-07-15T05:43:33.195Z,51.88
2018-07-15T05:46:02.655Z,52.06
2018-07-15T05:48:32.471Z,50.93
2018-07-15T05:51:01.573Z,50.30
2018-07-15T05:53:30.602Z,50.18
2018-07-15T05:56:00.060Z,49.18
2018-07-15T05:58:29.362Z,48.70
2018-07-15T06:00:58.404Z,47.69
2018-07-15T06:03:27.350Z,47.30
2018-07-15T06:05:56.858Z,45.82
2018-07-15T06:08:25.632Z,44.56
2018-07-15T06:10:54.424Z,45.14
2018-07-15T06:13:23.236Z,44.07
2018-07-15T06:15:52.092Z,41.91
2018-07-15T06:18:20.750Z,42.02
2018-07-15T06:20:49.775Z,40.76
2018-07-15T06:23:19.175Z,40.50
2018-07-15T06:25:48.035Z,36.98
2018-07-15T06:28:16.927Z,36.69
2018-07-15T06:30:45.734Z,35.48
2018-07-15T06:33:14.706Z,36.22
2018-07-15T06:35:43.488Z,36.89
2018-07-15T06:38:12.303Z,36.83
2018-07-15T06:40:41.262Z,33.49
2018-07-15T06:43:09.914Z,34.00
2018-07-15T06:45:38.701Z,34.51
2018-07-15T06:48:07.421Z,31.67
2018-07-15T06:50:36.286Z,31.31
2018-07-15T06:53:04.990Z,31.53
2018-07-15T06:55:33.859Z,30.54
2018-07-15T06:58:02.514Z,30.04
2018-07-15T07:00:31.153Z,29.82
2018-07-15T07:02:59.885Z,30.17
2018-07-15T07:05:28.514Z,29.10
2018-07-15T07:07:57.398Z,28.33
2018-07-15T07:10:25.955Z,27.87
2018-07-15T07:12:54.822Z,27.58
2018-07-15T07:15:23.469Z,27.96
2018-07-15T07:17:52.362Z,27.49
2018-07-15T07:20:21.415Z,25.66
2018-07-15T07:22:50.273Z,25.15
2018-07-15T07:25:18.974Z,26.00
2018-07-15T07:27:47.853Z,24.61
2018-07-15T07:30:16.528Z,22.88
2018-07-15T07:32:45.319Z,23.34
2018-07-15T07:35:14.099Z,25.20
2018-07-15T07:37:43.099Z,22.97
2018-07-15T07:40:12.139Z,22.76
2018-07-15T07:42:41.195Z,21.91
2018-07-15T07:45:10.189Z,21.62
2018-07-15T07:47:39.088Z,21.41
2018-07-15T07:50:07.894Z,21.50
2018-07-15T07:52:36.743Z,21.91
2018-07-15T07:55:05.591Z,22.69
2018-07-15T07:57:34.257Z,20.92
2018-07-15T08:00:02.846Z,21.65
2018-07-15T08:02:31.688Z,20.59
2018-07-15T08:05:00.389Z,20.27
2018-07-15T08:07:29.203Z,20.45
2018-07-15T08:09:58.288Z,21.08
2018-07-15T08:12:27.180Z,21.23
2018-07-15T08:14:55.996Z,19.67
2018-07-15T08:17:24.744Z,20.40
2018-07-15T08:19:53.548Z,19.43
2018-07-15T08:22:22.323Z,19.68
2018-07-15T08:24:51.003Z,19.88
2018-07-15T08:27:19.896Z,19.03
2018-07-15T08:29:59.609Z,19.83
2018-07-15T08:32:28.602Z,19.94
2018-07-15T08:34:57.484Z,19.12
2018-07-15T08:37:26.293Z,19.05
2018-07-15T08:39:55.000Z,18.87
2018-07-15T08:42:23.687Z,18.00
2018-07-15T08:44:52.267Z,18.45
2018-07-15T08:47:21.057Z,18.23
2018-07-15T08:49:49.676Z,18.27
2018-07-15T08:52:18.518Z,19.77
2018-07-15T08:54:47.191Z,17.56
2018-07-15T08:57:16.135Z,16.90
2018-07-15T08:59:44.736Z,16.75
2018-07-15T09:02:13.646Z,15.95
2018-07-15T09:04:42.175Z,15.38
2018-07-15T09:07:11.086Z,15.02
2018-07-15T09:09:40.827Z,15.54
2018-07-15T09:12:09.469Z,14.71
2018-07-15T09:14:38.075Z,14.72
2018-07-15T09:17:06.954Z,14.99
2018-07-15T09:19:35.843Z,14.35
2018-07-15T09:22:04.634Z,15.77
2018-07-15T09:24:34.303Z,14.86
2018-07-15T09:27:03.258Z,14.24
2018-07-15T09:29:32.108Z,14.24
2018-07-15T09:32:00.895Z,13.60
2018-07-15T09:34:29.759Z,13.77
2018-07-15T09:36:58.765Z,13.52
2018-07-15T09:39:27.528Z,13.37
2018-07-15T09:41:56.688Z,13.31
2018-07-15T09:44:25.755Z,13.70
2018-07-15T09:46:54.754Z,12.71
2018-07-15T09:49:24.146Z,12.49
2018-07-15T09:51:53.450Z,11.93
2018-07-15T09:54:22.224Z,12.34
2018-07-15T09:56:50.963Z,12.31
2018-07-15T09:59:19.643Z,12.00
2018-07-15T10:01:48.192Z,11.73
2018-07-15T10:04:16.921Z,11.85
2018-07-15T10:06:45.529Z,11.27
2018-07-15T10:09:14.440Z,10.71
2018-07-15T10:11:43.123Z,10.23
2018-07-15T10:14:11.805Z,11.21
2018-07-15T10:16:40.565Z,10.82
2018-07-15T10:19:09.222Z,10.94
2018-07-15T10:21:37.899Z,9.38
2018-07-15T10:24:06.503Z,9.54
2018-07-15T10:26:35.178Z,9.49
2018-07-15T10:29:03.834Z,10.58
2018-07-15T10:31:32.420Z,9.59
2018-07-15T10:34:01.048Z,8.51
2018-07-15T10:36:29.578Z,8.67
2018-07-15T10:38:58.546Z,8.47
2018-07-15T10:41:27.450Z,7.85
2018-07-15T10:43:56.423Z,8.25
2018-07-15T10:46:25.100Z,8.29
2018-07-15T10:48:53.863Z,8.55
2018-07-15T10:51:22.483Z,7.89
2018-07-15T10:53:51.150Z,8.43
2018-07-15T10:56:19.768Z,8.33
2018-07-15T10:58:48.491Z,8.11
2018-07-15T11:01:17.242Z,8.39
2018-07-15T11:03:45.864Z,8.31
2018-07-15T11:06:14.837Z,7.77
2018-07-15T11:08:43.596Z,8.38
2018-07-15T11:11:12.619Z,8.47
2018-07-15T11:13:41.411Z,8.03
2018-07-15T11:16:10.041Z,9.17
2018-07-15T11:18:38.754Z,8.58
2018-07-15T11:21:07.468Z,9.32
2018-07-15T11:23:36.076Z,9.02
2018-07-15T11:26:04.739Z,9.34
2018-07-15T11:28:33.503Z,8.76
2018-07-15T11:31:02.494Z,9.63
2018-07-15T11:33:31.019Z,9.92
2018-07-15T11:35:59.785Z,11.03
2018-07-15T11:38:28.519Z,11.41
2018-07-15T11:40:57.125Z,11.86
2018-07-15T11:43:25.797Z,12.36
2018-07-15T11:45:54.509Z,13.17
2018-07-15T11:48:23.258Z,14.04
2018-07-15T11:50:51.960Z,15.09
2018-07-15T11:53:20.817Z,15.89
2018-07-15T11:55:49.611Z,16.69
2018-07-15T11:58:18.810Z,17.22
2018-07-15T12:00:47.515Z,17.65
2018-07-15T12:03:16.546Z,17.71
2018-07-15T12:05:45.312Z,17.46
2018-07-15T12:08:14.009Z,18.20
2018-07-15T12:10:42.719Z,18.40
2018-07-15T12:13:11.392Z,17.67
2018-07-15T12:15:40.230Z,18.71
2018-07-15T12:18:09.122Z,18.58
2018-07-15T12:20:37.926Z,18.46
2018-07-15T12:23:06.595Z,19.71
2018-07-15T12:25:35.328Z,19.77
2018-07-15T12:28:04.205Z,19.43
2018-07-15T12:30:33.034Z,18.85
2018-07-15T12:33:01.788Z,19.12
2018-07-15T12:35:30.475Z,20.09
2018-07-15T12:37:59.161Z,19.67
2018-07-15T12:40:27.961Z,20.43
2018-07-15T12:42:56.635Z,19.81
2018-07-15T12:45:25.252Z,20.67
2018-07-15T12:47:54.005Z,20.61
2018-07-15T12:50:22.671Z,20.77
2018-07-15T12:52:51.510Z,19.52
2018-07-15T12:55:20.331Z,20.85
2018-07-15T12:57:49.060Z,20.55
2018-07-15T13:00:17.687Z,20.75
2018-07-15T13:02:46.302Z,20.80
2018-07-15T13:05:15.011Z,21.61
2018-07-15T13:07:43.596Z,20.83
2018-07-15T13:10:12.208Z,21.33
2018-07-15T13:12:40.783Z,21.02
2018-07-15T13:15:09.434Z,21.08
2018-07-15T13:17:38.100Z,20.73
2018-07-15T13:20:06.750Z,20.83
2018-07-15T13:22:35.417Z,20.38
2018-07-15T13:25:04.011Z,20.07
2018-07-15T13:27:32.648Z,20.43
2018-07-15T13:30:01.237Z,20.22
2018-07-15T13:32:29.916Z,20.36
2018-07-15T13:34:58.488Z,21.46
2018-07-15T13:37:27.072Z,20.44
2018-07-15T13:39:55.770Z,21.46
2018-07-15T13:42:24.361Z,20.72
2018-07-15T13:44:53.004Z,21.03
2018-07-15T13:47:21.628Z,21.04
2018-07-15T13:49:50.241Z,20.60
2018-07-15T13:52:18.833Z,20.18
2018-07-15T13:54:47.469Z,20.39
2018-07-15T13:57:16.154Z,19.95
2018-07-15T13:59:44.725Z,19.70
2018-07-15T14:02:13.383Z,20.08
2018-07-15T14:04:41.993Z,20.86
2018-07-15T14:07:10.599Z,20.58
2018-07-15T14:09:39.163Z,20.94
2018-07-15T14:12:07.810Z,20.40
2018-07-15T14:14:36.469Z,20.56
2018-07-15T14:17:05.156Z,20.73
2018-07-15T14:19:33.832Z,20.31
2018-07-15T14:22:02.553Z,20.62
2018-07-15T14:24:31.221Z,20.12
2018-07-15T14:26:59.821Z,20.71
2018-07-15T14:29:28.390Z,20.43
2018-07-15T14:31:56.990Z,20.36
2018-07-15T14:34:25.633Z,20.54
2018-07-15T14:36:54.234Z,20.59
2018-07-15T14:39:27.826Z,20.52
2018-07-15T14:41:56.344Z,20.25
2018-07-15T14:44:24.930Z,19.95
2018-07-15T14:46:53.519Z,20.12
2018-07-15T14:49:22.051Z,20.28
2018-07-15T14:51:50.805Z,20.41
2018-07-15T14:54:19.450Z,20.39
2018-07-15T14:56:48.119Z,20.15
2018-07-15T14:59:16.720Z,20.25
2018-07-15T15:01:45.356Z,20.19
2018-07-15T15:04:13.981Z,20.47
2018-07-15T15:06:42.547Z,20.43
2018-07-15T15:09:11.084Z,20.49
2018-07-15T15:11:39.698Z,20.41
2018-07-15T15:14:08.295Z,20.57
2018-07-15T15:16:36.834Z,20.44
2018-07-15T15:19:05.590Z,20.18
2018-07-15T15:21:34.182Z,20.03
2018-07-15T15:24:02.791Z,20.44
2018-07-15T15:26:31.320Z,20.77
2018-07-15T15:29:00.104Z,20.56
2018-07-15T15:31:28.730Z,21.04
2018-07-15T15:33:57.520Z,20.99
2018-07-15T15:36:26.319Z,20.99
2018-07-15T15:38:54.861Z,21.21
2018-07-15T15:41:23.428Z,21.30
2018-07-15T15:43:52.022Z,21.33
2018-07-15T15:46:20.629Z,21.59
2018-07-15T15:48:49.212Z,20.79
2018-07-15T15:51:17.926Z,21.06
2018-07-15T15:53:46.718Z,21.31
2018-07-15T15:56:15.504Z,21.24
2018-07-15T15:58:44.267Z,21.29
2018-07-15T16:01:13.179Z,21.06
2018-07-15T16:03:42.177Z,20.83
2018-07-15T16:06:11.924Z,20.95
2018-07-15T16:08:41.639Z,21.05
2018-07-15T16:11:14.555Z,21.20
2018-07-15T16:13:48.409Z,21.18
2018-07-15T16:16:18.432Z,20.96
2018-07-15T16:18:47.376Z,20.96
2018-07-15T16:21:17.188Z,21.03
2018-07-15T16:23:52.676Z,21.08
2018-07-15T16:26:26.263Z,21.45
2018-07-15T16:29:03.694Z,21.58
2018-07-15T16:34:19.391Z,21.14
2018-07-15T16:36:50.334Z,21.05
2018-07-15T16:39:19.928Z,20.94
2018-07-15T16:41:53.593Z,20.99
2018-07-15T16:44:23.033Z,20.80
2018-07-15T16:46:52.213Z,21.72
2018-07-15T16:49:21.241Z,20.91
2018-07-15T16:51:50.216Z,20.71
2018-07-15T16:54:19.153Z,20.14
2018-07-15T16:56:47.756Z,21.67
2018-07-15T16:59:16.294Z,21.57
2018-07-15T17:01:46.276Z,21.23
2018-07-15T17:04:19.332Z,21.76
2018-07-15T17:06:48.233Z,20.46
2018-07-15T17:09:17.008Z,21.15
2018-07-15T17:11:46.543Z,21.56
2018-07-15T17:14:15.485Z,20.78
2018-07-15T17:16:45.920Z,21.78
2018-07-15T17:19:14.644Z,21.54
2018-07-15T17:21:43.386Z,22.29
2018-07-15T17:24:12.167Z,22.13
2018-07-15T17:26:41.536Z,22.66
2018-07-15T17:29:10.883Z,22.25
2018-07-15T17:31:40.121Z,22.82
2018-07-15T17:34:08.813Z,22.68
2018-07-15T17:36:37.821Z,22.10
2018-07-15T17:39:06.982Z,21.91
2018-07-15T17:41:36.500Z,21.97
2018-07-15T17:44:05.415Z,23.12
2018-07-15T17:46:34.322Z,22.69
2018-07-15T17:49:03.379Z,21.77
2018-07-15T17:51:32.429Z,21.77
2018-07-15T17:54:01.494Z,23.16
2018-07-15T17:56:30.422Z,22.71
2018-07-15T17:58:59.221Z,23.15
2018-07-15T18:01:27.861Z,22.60
2018-07-15T18:03:56.559Z,23.38
2018-07-15T18:06:25.214Z,22.92
2018-07-15T18:08:53.832Z,22.03
2018-07-15T18:11:22.447Z,22.48
2018-07-15T18:13:51.091Z,22.51
2018-07-15T18:16:19.984Z,23.34
2018-07-15T18:18:48.640Z,22.76
2018-07-15T18:21:17.323Z,23.53
2018-07-15T18:23:46.050Z,23.53
2018-07-15T18:26:14.836Z,22.91
2018-07-15T18:28:43.479Z,23.02
2018-07-15T18:31:12.316Z,23.96
2018-07-15T18:33:41.169Z,23.80
2018-07-15T18:36:09.926Z,23.88
2018-07-15T18:38:38.598Z,23.93
2018-07-15T18:41:07.598Z,23.58
2018-07-15T18:43:36.500Z,23.39
2018-07-15T18:46:05.294Z,23.94
2018-07-15T18:48:34.044Z,24.42
2018-07-15T18:51:02.974Z,23.65
2018-07-15T18:53:31.971Z,23.93
2018-07-15T18:56:01.794Z,23.87
2018-07-15T18:58:30.462Z,24.74
2018-07-15T19:00:59.373Z,24.15
2018-07-15T19:03:28.105Z,24.24
2018-07-15T19:05:57.458Z,24.97
2018-07-15T19:08:26.085Z,25.33
2018-07-15T19:10:54.771Z,25.38
2018-07-15T19:13:23.382Z,24.56
2018-07-15T19:15:52.026Z,25.61
2018-07-15T19:18:20.796Z,25.78
2018-07-15T19:20:49.305Z,25.80
2018-07-15T19:23:17.836Z,25.89
2018-07-15T19:25:46.508Z,25.92
2018-07-15T19:28:15.429Z,25.37
2018-07-15T19:30:44.159Z,25.92
2018-07-15T19:33:12.843Z,26.55
2018-07-15T19:35:41.473Z,26.35
2018-07-15T19:38:10.103Z,26.73
2018-07-15T19:40:39.116Z,26.84
2018-07-15T19:43:07.798Z,27.13
2018-07-15T19:45:36.374Z,26.74
2018-07-15T19:48:05.063Z,27.07
2018-07-15T19:50:33.629Z,27.37
2018-07-15T19:53:02.225Z,27.79
2018-07-15T19:55:30.945Z,28.20
2018-07-15T19:57:59.754Z,27.58
2018-07-15T20:00:28.360Z,27.28
2018-07-15T20:02:56.979Z,27.97
2018-07-15T20:05:25.546Z,27.99
2018-07-15T20:07:54.122Z,28.60
2018-07-15T20:10:22.775Z,28.98
2018-07-15T20:12:51.372Z,28.22
2018-07-15T20:15:20.011Z,28.09
2018-07-15T20:17:48.601Z,28.70
2018-07-15T20:20:17.194Z,28.91
2018-07-15T20:22:45.876Z,29.16
2018-07-15T20:25:14.590Z,29.80
2018-07-15T20:27:43.143Z,30.54
2018-07-15T20:30:11.795Z,30.46
2018-07-15T20:32:40.380Z,30.22
2018-07-15T20:35:08.982Z,30.75
2018-07-15T20:37:37.782Z,30.74
2018-07-15T20:40:06.405Z,31.22
2018-07-15T20:42:35.195Z,30.13
2018-07-15T20:45:04.344Z,30.23
2018-07-15T20:47:33.102Z,31.16
2018-07-15T20:50:01.764Z,30.94
2018-07-15T20:52:30.538Z,31.15
2018-07-15T20:54:59.292Z,32.03
2018-07-15T20:57:28.023Z,32.31
2018-07-15T20:59:56.761Z,32.43
2018-07-15T21:02:25.546Z,32.28
2018-07-15T21:04:54.166Z,32.93
2018-07-15T21:07:23.009Z,32.39
2018-07-15T21:09:51.840Z,32.60
2018-07-15T21:12:21.429Z,32.68
2018-07-15T21:14:50.074Z,33.12
2018-07-15T21:17:18.794Z,33.57
2018-07-15T21:19:47.406Z,32.84
2018-07-15T21:22:16.101Z,32.37
2018-07-15T21:24:45.327Z,33.53
2018-07-15T21:27:14.060Z,33.27
2018-07-15T21:29:42.766Z,32.90
2018-07-15T21:32:11.652Z,33.72
2018-07-15T21:34:40.316Z,33.09
2018-07-15T21:37:09.934Z,34.27
2018-07-15T21:39:38.666Z,33.53
2018-07-15T21:42:07.283Z,34.52
2018-07-15T21:44:36.033Z,34.73
2018-07-15T21:47:04.588Z,34.72
2018-07-15T21:49:33.203Z,34.92
2018-07-15T21:52:01.843Z,34.88
2018-07-15T21:54:30.465Z,35.51
2018-07-15T21:56:59.306Z,36.03
2018-07-15T21:59:28.030Z,35.73
2018-07-15T22:01:56.682Z,35.20
2018-07-15T22:04:25.446Z,35.43
2018-07-15T22:07:05.085Z,35.76
2018-07-15T22:09:53.477Z,36.63
2018-07-15T22:12:22.197Z,36.50
2018-07-15T22:14:50.774Z,36.60
2018-07-15T22:17:19.626Z,36.64
2018-07-15T22:19:48.323Z,37.42
2018-07-15T22:22:17.316Z,37.59
2018-07-15T22:24:46.039Z,37.36
2018-07-15T22:27:14.806Z,38.18
2018-07-15T22:29:43.479Z,38.39
2018-07-15T22:32:12.149Z,38.34
2018-07-15T22:34:40.867Z,38.72
2018-07-15T22:37:09.928Z,38.42
2018-07-15T22:39:38.547Z,38.18
2018-07-15T22:42:07.340Z,38.47
2018-07-15T22:44:36.039Z,38.52
2018-07-15T22:47:04.737Z,39.35
2018-07-15T22:49:33.458Z,38.45
2018-07-15T22:52:02.269Z,39.60
2018-07-15T22:54:31.003Z,38.90
2018-07-15T22:56:59.737Z,39.45
2018-07-15T22:59:28.403Z,39.02
2018-07-15T23:01:57.183Z,39.63
2018-07-15T23:04:36.744Z,40.12
2018-07-15T23:07:05.402Z,39.69
2018-07-15T23:09:34.135Z,39.88
2018-07-15T23:12:02.699Z,40.00
2018-07-15T23:14:31.528Z,39.90
2018-07-15T23:17:00.137Z,40.10
2018-07-15T23:19:28.789Z,40.54
2018-07-15T23:21:57.387Z,40.93
2018-07-15T23:24:26.060Z,40.54
2018-07-15T23:26:54.780Z,41.42
2018-07-15T23:29:23.504Z,41.06
2018-07-15T23:31:52.202Z,40.74
2018-07-15T23:34:20.802Z,41.00
2018-07-15T23:36:49.547Z,41.81
2018-07-15T23:39:18.187Z,41.79
2018-07-15T23:41:46.857Z,41.59
2018-07-15T23:44:15.513Z,41.38
2018-07-15T23:46:44.336Z,41.34
2018-07-15T23:49:13.113Z,41.43
2018-07-15T23:51:41.788Z,42.42
2018-07-15T23:54:10.433Z,42.21
2018-07-15T23:56:39.140Z,42.37
2018-07-15T23:59:07.956Z,42.45
